sensor_id;sensor_type;location;lat;lon;timestamp;pressure;altitude;pressure_sealevel;temperature;humidity
56074;BME280;41950;55.840;37.442;2022-09-28T00:01:36;98618.63;;;9.52;75.94
56074;BME280;41950;55.840;37.442;2022-09-28T00:04:02;98624.75;;;9.49;75.87
56074;BME280;41950;55.840;37.442;2022-09-28T00:06:29;98614.50;;;9.46;76.06
56074;BME280;41950;55.840;37.442;2022-09-28T00:08:55;98620.53;;;9.47;76.16
56074;BME280;41950;55.840;37.442;2022-09-28T00:11:23;98610.97;;;9.49;76.39
56074;BME280;41950;55.840;37.442;2022-09-28T00:13:51;98613.59;;;9.47;76.03
56074;BME280;41950;55.840;37.442;2022-09-28T00:16:20;98609.31;;;9.46;76.08
56074;BME280;41950;55.840;37.442;2022-09-28T00:18:46;98593.97;;;9.40;76.02
56074;BME280;41950;55.840;37.442;2022-09-28T00:21:19;98599.72;;;9.50;75.90
56074;BME280;41950;55.840;37.442;2022-09-28T00:23:46;98589.19;;;9.54;76.16
56074;BME280;41950;55.840;37.442;2022-09-28T00:26:32;98595.19;;;9.56;75.92
56074;BME280;41950;55.840;37.442;2022-09-28T00:28:59;98597.22;;;9.47;75.52
56074;BME280;41950;55.840;37.442;2022-09-28T00:31:26;98595.56;;;9.44;75.87
56074;BME280;41950;55.840;37.442;2022-09-28T00:33:53;98592.28;;;9.39;75.99
56074;BME280;41950;55.840;37.442;2022-09-28T00:36:25;98588.88;;;9.37;76.07
56074;BME280;41950;55.840;37.442;2022-09-28T00:38:54;98580.22;;;9.38;76.27
56074;BME280;41950;55.840;37.442;2022-09-28T00:41:22;98573.34;;;9.37;76.14
56074;BME280;41950;55.840;37.442;2022-09-28T00:43:48;98569.88;;;9.38;76.17
56074;BME280;41950;55.840;37.442;2022-09-28T00:46:26;98568.06;;;9.40;76.44
56074;BME280;41950;55.840;37.442;2022-09-28T00:49:03;98577.63;;;9.38;76.33
56074;BME280;41950;55.840;37.442;2022-09-28T00:51:30;98552.69;;;9.36;76.31
56074;BME280;41950;55.840;37.442;2022-09-28T00:53:58;98554.13;;;9.44;76.26
56074;BME280;41950;55.840;37.442;2022-09-28T00:56:27;98563.59;;;9.45;76.38
56074;BME280;41950;55.840;37.442;2022-09-28T00:58:54;98561.09;;;9.42;76.59
56074;BME280;41950;55.840;37.442;2022-09-28T01:01:22;98549.19;;;9.37;77.07
56074;BME280;41950;55.840;37.442;2022-09-28T01:03:47;98544.06;;;9.35;77.47
56074;BME280;41950;55.840;37.442;2022-09-28T01:06:24;98546.81;;;9.29;77.83
56074;BME280;41950;55.840;37.442;2022-09-28T01:08:55;98527.28;;;9.19;78.16
56074;BME280;41950;55.840;37.442;2022-09-28T01:11:23;98533.97;;;9.26;78.14
56074;BME280;41950;55.840;37.442;2022-09-28T01:13:52;98529.78;;;9.22;78.33
56074;BME280;41950;55.840;37.442;2022-09-28T01:19:10;98517.78;;;9.19;78.67
56074;BME280;41950;55.840;37.442;2022-09-28T01:24:55;98517.06;;;9.14;78.74
56074;BME280;41950;55.840;37.442;2022-09-28T01:30:23;98508.66;;;9.08;78.92
56074;BME280;41950;55.840;37.442;2022-09-28T01:32:52;98501.84;;;9.04;79.07
56074;BME280;41950;55.840;37.442;2022-09-28T01:38:04;98503.38;;;9.11;78.46
56074;BME280;41950;55.840;37.442;2022-09-28T01:40:33;98504.13;;;9.14;78.34
56074;BME280;41950;55.840;37.442;2022-09-28T01:43:07;98505.88;;;9.14;78.59
56074;BME280;41950;55.840;37.442;2022-09-28T01:46:10;98489.63;;;9.09;78.77
56074;BME280;41950;55.840;37.442;2022-09-28T01:48:58;98474.25;;;9.04;78.90
56074;BME280;41950;55.840;37.442;2022-09-28T01:51:40;98491.38;;;9.08;79.03
56074;BME280;41950;55.840;37.442;2022-09-28T01:54:19;98487.06;;;9.09;78.51
56074;BME280;41950;55.840;37.442;2022-09-28T01:59:32;98473.25;;;9.08;78.80
56074;BME280;41950;55.840;37.442;2022-09-28T02:02:06;98472.31;;;9.11;78.78
56074;BME280;41950;55.840;37.442;2022-09-28T02:04:44;98470.63;;;9.10;78.82
56074;BME280;41950;55.840;37.442;2022-09-28T02:07:28;98465.44;;;9.10;78.76
56074;BME280;41950;55.840;37.442;2022-09-28T02:10:08;98459.47;;;9.08;78.79
56074;BME280;41950;55.840;37.442;2022-09-28T02:12:50;98461.97;;;9.11;78.47
56074;BME280;41950;55.840;37.442;2022-09-28T02:15:52;98455.16;;;9.08;78.96
56074;BME280;41950;55.840;37.442;2022-09-28T02:18:18;98452.59;;;9.07;78.73
56074;BME280;41950;55.840;37.442;2022-09-28T02:20:51;98437.16;;;9.04;78.69
56074;BME280;41950;55.840;37.442;2022-09-28T02:23:19;98452.50;;;9.10;78.92
56074;BME280;41950;55.840;37.442;2022-09-28T02:25:49;98440.47;;;9.09;78.73
56074;BME280;41950;55.840;37.442;2022-09-28T02:28:17;98434.66;;;9.01;79.03
56074;BME280;41950;55.840;37.442;2022-09-28T02:30:43;98440.59;;;9.04;79.25
56074;BME280;41950;55.840;37.442;2022-09-28T02:33:29;98434.50;;;9.07;79.66
56074;BME280;41950;55.840;37.442;2022-09-28T02:35:57;98418.28;;;9.00;79.10
56074;BME280;41950;55.840;37.442;2022-09-28T02:38:24;98436.28;;;9.05;79.20
56074;BME280;41950;55.840;37.442;2022-09-28T02:41:02;98426.78;;;9.04;79.51
56074;BME280;41950;55.840;37.442;2022-09-28T02:51:39;98426.19;;;8.95;79.49
56074;BME280;41950;55.840;37.442;2022-09-28T02:59:48;98409.06;;;8.91;79.48
56074;BME280;41950;55.840;37.442;2022-09-28T03:08:22;98399.16;;;8.78;80.43
56074;BME280;41950;55.840;37.442;2022-09-28T03:10:56;98402.53;;;8.80;80.68
56074;BME280;41950;55.840;37.442;2022-09-28T03:13:25;98408.56;;;8.80;80.26
56074;BME280;41950;55.840;37.442;2022-09-28T03:15:51;98405.97;;;8.80;80.47
56074;BME280;41950;55.840;37.442;2022-09-28T03:18:17;98406.69;;;8.85;80.86
56074;BME280;41950;55.840;37.442;2022-09-28T03:20:42;98395.44;;;8.86;80.49
56074;BME280;41950;55.840;37.442;2022-09-28T03:23:08;98399.06;;;8.81;80.53
56074;BME280;41950;55.840;37.442;2022-09-28T03:25:34;98387.13;;;8.75;80.67
56074;BME280;41950;55.840;37.442;2022-09-28T03:27:59;98382.91;;;8.73;80.85
56074;BME280;41950;55.840;37.442;2022-09-28T03:30:25;98392.31;;;8.75;80.87
56074;BME280;41950;55.840;37.442;2022-09-28T03:32:58;98385.53;;;8.71;81.07
56074;BME280;41950;55.840;37.442;2022-09-28T03:35:24;98382.09;;;8.71;81.37
56074;BME280;41950;55.840;37.442;2022-09-28T03:37:53;98376.28;;;8.64;81.49
56074;BME280;41950;55.840;37.442;2022-09-28T03:40:20;98373.50;;;8.70;81.44
56074;BME280;41950;55.840;37.442;2022-09-28T03:42:45;98382.84;;;8.74;81.17
56074;BME280;41950;55.840;37.442;2022-09-28T03:45:11;98372.47;;;8.76;81.50
56074;BME280;41950;55.840;37.442;2022-09-28T03:47:37;98369.13;;;8.72;81.41
56074;BME280;41950;55.840;37.442;2022-09-28T03:50:02;98363.16;;;8.70;81.72
56074;BME280;41950;55.840;37.442;2022-09-28T03:52:28;98359.69;;;8.71;82.25
56074;BME280;41950;55.840;37.442;2022-09-28T03:54:54;98354.41;;;8.74;82.02
56074;BME280;41950;55.840;37.442;2022-09-28T03:57:19;98352.59;;;8.78;82.20
56074;BME280;41950;55.840;37.442;2022-09-28T03:59:45;98349.19;;;8.76;82.15
56074;BME280;41950;55.840;37.442;2022-09-28T04:02:10;98346.00;;;8.67;82.05
56074;BME280;41950;55.840;37.442;2022-09-28T04:04:36;98338.88;;;8.74;81.95
56074;BME280;41950;55.840;37.442;2022-09-28T04:07:02;98329.69;;;8.65;82.04
56074;BME280;41950;55.840;37.442;2022-09-28T04:09:27;98328.78;;;8.66;82.11
56074;BME280;41950;55.840;37.442;2022-09-28T04:11:53;98335.66;;;8.67;82.34
56074;BME280;41950;55.840;37.442;2022-09-28T04:14:19;98331.22;;;8.71;82.20
56074;BME280;41950;55.840;37.442;2022-09-28T04:16:44;98332.69;;;8.80;82.13
56074;BME280;41950;55.840;37.442;2022-09-28T04:19:12;98326.06;;;8.71;81.97
56074;BME280;41950;55.840;37.442;2022-09-28T04:21:38;98325.19;;;8.71;81.74
56074;BME280;41950;55.840;37.442;2022-09-28T04:24:04;98332.03;;;8.73;82.19
56074;BME280;41950;55.840;37.442;2022-09-28T04:26:30;98325.91;;;8.76;82.17
56074;BME280;41950;55.840;37.442;2022-09-28T04:28:55;98324.16;;;8.76;82.00
56074;BME280;41950;55.840;37.442;2022-09-28T04:31:47;98322.44;;;8.77;82.24
56074;BME280;41950;55.840;37.442;2022-09-28T04:34:16;98314.75;;;8.74;82.24
56074;BME280;41950;55.840;37.442;2022-09-28T04:36:43;98313.97;;;8.72;81.96
56074;BME280;41950;55.840;37.442;2022-09-28T04:39:10;98316.59;;;8.70;82.56
56074;BME280;41950;55.840;37.442;2022-09-28T04:41:36;98312.94;;;8.77;82.65
56074;BME280;41950;55.840;37.442;2022-09-28T04:44:01;98312.94;;;8.77;82.67
56074;BME280;41950;55.840;37.442;2022-09-28T04:46:27;98312.94;;;8.77;82.44
56074;BME280;41950;55.840;37.442;2022-09-28T04:48:52;98313.88;;;8.75;82.56
56074;BME280;41950;55.840;37.442;2022-09-28T04:51:18;98308.00;;;8.70;82.41
56074;BME280;41950;55.840;37.442;2022-09-28T04:53:44;98319.03;;;8.75;82.43
56074;BME280;41950;55.840;37.442;2022-09-28T04:56:11;98312.94;;;8.77;82.57
56074;BME280;41950;55.840;37.442;2022-09-28T04:58:38;98314.38;;;8.86;82.15
56074;BME280;41950;55.840;37.442;2022-09-28T05:01:06;98310.97;;;8.85;82.19
56074;BME280;41950;55.840;37.442;2022-09-28T05:03:32;98295.44;;;8.85;82.17
56074;BME280;41950;55.840;37.442;2022-09-28T05:05:58;98307.09;;;8.97;82.01
56074;BME280;41950;55.840;37.442;2022-09-28T05:08:24;98301.19;;;8.93;82.08
56074;BME280;41950;55.840;37.442;2022-09-28T05:10:57;98290.63;;;8.99;82.03
56074;BME280;41950;55.840;37.442;2022-09-28T05:13:24;98288.00;;;9.01;81.88
56074;BME280;41950;55.840;37.442;2022-09-28T05:15:52;98288.06;;;8.99;82.03
56074;BME280;41950;55.840;37.442;2022-09-28T05:18:18;98287.81;;;9.07;81.92
56074;BME280;41950;55.840;37.442;2022-09-28T05:20:44;98281.84;;;9.05;81.68
56074;BME280;41950;55.840;37.442;2022-09-28T05:23:10;98268.00;;;9.06;81.74
56074;BME280;41950;55.840;37.442;2022-09-28T05:25:40;98268.84;;;9.07;82.07
56074;BME280;41950;55.840;37.442;2022-09-28T05:28:06;98273.03;;;9.11;81.90
56074;BME280;41950;55.840;37.442;2022-09-28T05:30:33;98264.31;;;9.13;81.86
56074;BME280;41950;55.840;37.442;2022-09-28T05:32:59;98269.38;;;9.16;81.49
56074;BME280;41950;55.840;37.442;2022-09-28T05:35:25;98274.50;;;9.18;81.64
56074;BME280;41950;55.840;37.442;2022-09-28T05:37:50;98271.97;;;9.16;81.85
56074;BME280;41950;55.840;37.442;2022-09-28T05:40:16;98267.69;;;9.15;81.97
56074;BME280;41950;55.840;37.442;2022-09-28T05:42:42;98270.13;;;9.20;82.04
56074;BME280;41950;55.840;37.442;2022-09-28T05:45:08;98259.25;;;9.10;81.88
56074;BME280;41950;55.840;37.442;2022-09-28T05:47:39;98270.34;;;9.14;82.75
56074;BME280;41950;55.840;37.442;2022-09-28T05:50:06;98266.00;;;9.14;82.34
56074;BME280;41950;55.840;37.442;2022-09-28T05:52:32;98265.50;;;9.03;82.55
56074;BME280;41950;55.840;37.442;2022-09-28T05:54:58;98260.31;;;9.03;82.80
56074;BME280;41950;55.840;37.442;2022-09-28T05:57:23;98261.94;;;9.07;82.69
56074;BME280;41950;55.840;37.442;2022-09-28T05:59:49;98260.13;;;9.09;82.67
56074;BME280;41950;55.840;37.442;2022-09-28T06:02:14;98255.03;;;9.08;82.74
56074;BME280;41950;55.840;37.442;2022-09-28T06:04:40;98259.06;;;9.15;82.96
56074;BME280;41950;55.840;37.442;2022-09-28T06:07:05;98233.34;;;9.10;83.11
56074;BME280;41950;55.840;37.442;2022-09-28T06:09:31;98238.94;;;9.23;83.21
56074;BME280;41950;55.840;37.442;2022-09-28T06:11:57;98248.09;;;9.33;82.48
56074;BME280;41950;55.840;37.442;2022-09-28T06:14:24;98248.00;;;9.36;82.73
56074;BME280;41950;55.840;37.442;2022-09-28T06:16:50;98234.97;;;9.38;82.52
56074;BME280;41950;55.840;37.442;2022-09-28T06:19:16;98238.31;;;9.41;82.26
56074;BME280;41950;55.840;37.442;2022-09-28T06:21:42;98242.34;;;9.48;82.12
56074;BME280;41950;55.840;37.442;2022-09-28T06:24:08;98235.56;;;9.46;82.39
56074;BME280;41950;55.840;37.442;2022-09-28T06:26:33;98232.28;;;9.41;82.35
56074;BME280;41950;55.840;37.442;2022-09-28T06:28:59;98243.31;;;9.46;82.50
56074;BME280;41950;55.840;37.442;2022-09-28T06:31:25;98247.47;;;9.50;82.72
56074;BME280;41950;55.840;37.442;2022-09-28T06:33:51;98248.22;;;9.53;82.35
56074;BME280;41950;55.840;37.442;2022-09-28T06:36:18;98239.16;;;9.42;82.20
56074;BME280;41950;55.840;37.442;2022-09-28T06:38:45;98243.38;;;9.44;82.11
56074;BME280;41950;55.840;37.442;2022-09-28T06:41:11;98242.41;;;9.47;82.72
56074;BME280;41950;55.840;37.442;2022-09-28T06:43:37;98239.25;;;9.39;82.23
56074;BME280;41950;55.840;37.442;2022-09-28T06:46:04;98229.91;;;9.35;82.61
56074;BME280;41950;55.840;37.442;2022-09-28T06:48:30;98229.47;;;9.47;82.56
56074;BME280;41950;55.840;37.442;2022-09-28T06:50:58;98241.88;;;9.62;82.52
56074;BME280;41950;55.840;37.442;2022-09-28T06:53:25;98239.91;;;9.69;82.53
56074;BME280;41950;55.840;37.442;2022-09-28T06:55:52;98228.81;;;9.65;81.81
56074;BME280;41950;55.840;37.442;2022-09-28T06:58:19;98233.16;;;9.65;82.14
56074;BME280;41950;55.840;37.442;2022-09-28T07:00:46;98244.13;;;9.71;81.75
56074;BME280;41950;55.840;37.442;2022-09-28T07:03:14;98239.84;;;9.70;81.62
56074;BME280;41950;55.840;37.442;2022-09-28T07:05:43;98244.97;;;9.72;81.31
56074;BME280;41950;55.840;37.442;2022-09-28T07:08:09;98239.00;;;9.70;80.97
56074;BME280;41950;55.840;37.442;2022-09-28T07:10:40;98232.47;;;9.59;81.38
56074;BME280;41950;55.840;37.442;2022-09-28T07:13:06;98221.94;;;9.64;81.43
56074;BME280;41950;55.840;37.442;2022-09-28T07:15:32;98223.47;;;9.70;81.49
56074;BME280;41950;55.840;37.442;2022-09-28T07:17:58;98220.69;;;9.74;81.61
56074;BME280;41950;55.840;37.442;2022-09-28T07:20:25;98218.72;;;9.81;80.98
56074;BME280;41950;55.840;37.442;2022-09-28T07:22:55;98226.84;;;9.72;81.20
56074;BME280;41950;55.840;37.442;2022-09-28T07:25:21;98230.03;;;9.78;81.58
56074;BME280;41950;55.840;37.442;2022-09-28T07:27:47;98221.13;;;9.85;81.42
56074;BME280;41950;55.840;37.442;2022-09-28T07:30:13;98229.47;;;9.94;81.70
56074;BME280;41950;55.840;37.442;2022-09-28T07:32:41;98225.69;;;10.02;81.31
56074;BME280;41950;55.840;37.442;2022-09-28T07:35:09;98207.13;;;9.91;80.44
56074;BME280;41950;55.840;37.442;2022-09-28T07:37:35;98228.94;;;9.84;81.18
56074;BME280;41950;55.840;37.442;2022-09-28T07:40:05;98210.56;;;9.68;81.14
56074;BME280;41950;55.840;37.442;2022-09-28T07:42:50;98230.31;;;9.71;81.29
56074;BME280;41950;55.840;37.442;2022-09-28T07:45:16;98232.84;;;9.72;81.78
56074;BME280;41950;55.840;37.442;2022-09-28T07:47:42;98224.97;;;9.75;81.59
56074;BME280;41950;55.840;37.442;2022-09-28T07:50:08;98223.09;;;9.79;81.25
56074;BME280;41950;55.840;37.442;2022-09-28T07:52:34;98226.38;;;9.84;81.39
56074;BME280;41950;55.840;37.442;2022-09-28T07:55:03;98224.56;;;9.86;81.14
56074;BME280;41950;55.840;37.442;2022-09-28T07:57:30;98219.16;;;9.92;81.04
56074;BME280;41950;55.840;37.442;2022-09-28T07:59:59;98214.94;;;9.89;81.26
56074;BME280;41950;55.840;37.442;2022-09-28T08:02:26;98204.41;;;9.94;80.92
56074;BME280;41950;55.840;37.442;2022-09-28T08:04:52;98212.59;;;10.05;80.95
56074;BME280;41950;55.840;37.442;2022-09-28T08:07:18;98211.81;;;10.03;80.69
56074;BME280;41950;55.840;37.442;2022-09-28T08:09:44;98213.31;;;10.09;81.12
56074;BME280;41950;55.840;37.442;2022-09-28T08:12:11;98202.94;;;10.09;80.59
56074;BME280;41950;55.840;37.442;2022-09-28T08:14:38;98208.56;;;10.21;80.75
56074;BME280;41950;55.840;37.442;2022-09-28T08:17:04;98205.34;;;10.37;80.32
56074;BME280;41950;55.840;37.442;2022-09-28T08:19:30;98199.19;;;10.39;79.65
56074;BME280;41950;55.840;37.442;2022-09-28T08:22:18;98209.28;;;10.47;79.35
56074;BME280;41950;55.840;37.442;2022-09-28T08:24:44;98205.78;;;10.48;79.42
56074;BME280;41950;55.840;37.442;2022-09-28T08:27:10;98216.66;;;10.56;79.49
56074;BME280;41950;55.840;37.442;2022-09-28T08:29:36;98204.22;;;10.64;78.95
56074;BME280;41950;55.840;37.442;2022-09-28T08:32:03;98199.16;;;10.61;78.39
56074;BME280;41950;55.840;37.442;2022-09-28T08:34:30;98196.25;;;10.48;78.52
56074;BME280;41950;55.840;37.442;2022-09-28T08:36:56;98194.75;;;10.43;78.62
56074;BME280;41950;55.840;37.442;2022-09-28T08:39:21;98200.28;;;10.34;78.69
56074;BME280;41950;55.840;37.442;2022-09-28T08:41:55;98189.84;;;10.35;79.11
56074;BME280;41950;55.840;37.442;2022-09-28T08:44:25;98195.03;;;10.35;78.98
56074;BME280;41950;55.840;37.442;2022-09-28T08:47:00;98201.84;;;10.38;79.37
56074;BME280;41950;55.840;37.442;2022-09-28T08:49:30;98197.41;;;10.41;78.63
56074;BME280;41950;55.840;37.442;2022-09-28T08:52:04;98195.75;;;10.39;79.09
56074;BME280;41950;55.840;37.442;2022-09-28T08:57:17;98176.41;;;10.47;79.07
56074;BME280;41950;55.840;37.442;2022-09-28T09:02:36;98190.28;;;10.46;78.47
56074;BME280;41950;55.840;37.442;2022-09-28T09:05:04;98188.81;;;10.39;78.79
56074;BME280;41950;55.840;37.442;2022-09-28T09:07:47;98195.66;;;10.42;78.82
56074;BME280;41950;55.840;37.442;2022-09-28T09:10:41;98189.66;;;10.40;79.25
56074;BME280;41950;55.840;37.442;2022-09-28T09:16:18;98195.53;;;10.45;79.30
56074;BME280;41950;55.840;37.442;2022-09-28T09:23:55;98192.97;;;10.86;78.58
56074;BME280;41950;55.840;37.442;2022-09-28T09:48:20;98201.78;;;11.02;77.86
56074;BME280;41950;55.840;37.442;2022-09-28T09:50:56;98177.78;;;10.97;77.94
56074;BME280;41950;55.840;37.442;2022-09-28T09:53:51;98201.13;;;11.17;77.70
56074;BME280;41950;55.840;37.442;2022-09-28T09:56:40;98189.06;;;11.16;76.88
56074;BME280;41950;55.840;37.442;2022-09-28T09:59:16;98199.13;;;11.24;77.01
56074;BME280;41950;55.840;37.442;2022-09-28T10:01:44;98189.25;;;11.32;77.10
56074;BME280;41950;55.840;37.442;2022-09-28T10:04:20;98198.50;;;11.37;76.44
56074;BME280;41950;55.840;37.442;2022-09-28T10:06:49;98195.13;;;11.35;75.99
56074;BME280;41950;55.840;37.442;2022-09-28T10:09:23;98200.47;;;11.32;76.27
56074;BME280;41950;55.840;37.442;2022-09-28T10:11:51;98198.56;;;11.36;75.80
56074;BME280;41950;55.840;37.442;2022-09-28T10:14:22;98199.22;;;11.41;75.94
56074;BME280;41950;55.840;37.442;2022-09-28T10:16:50;98191.88;;;11.51;75.89
56074;BME280;41950;55.840;37.442;2022-09-28T10:19:19;98196.41;;;11.45;75.12
56074;BME280;41950;55.840;37.442;2022-09-28T10:21:49;98189.88;;;11.37;75.59
56074;BME280;41950;55.840;37.442;2022-09-28T10:26:53;98195.00;;;11.38;75.68
56074;BME280;41950;55.840;37.442;2022-09-28T10:29:22;98199.69;;;11.30;75.43
56074;BME280;41950;55.840;37.442;2022-09-28T10:31:51;98195.28;;;11.12;75.75
56074;BME280;41950;55.840;37.442;2022-09-28T10:34:23;98205.94;;;11.06;76.43
56074;BME280;41950;55.840;37.442;2022-09-28T10:36:52;98200.25;;;10.98;76.49
56074;BME280;41950;55.840;37.442;2022-09-28T10:45:02;98192.81;;;10.89;77.16
56074;BME280;41950;55.840;37.442;2022-09-28T10:47:29;98205.09;;;11.05;77.21
56074;BME280;41950;55.840;37.442;2022-09-28T10:49:57;98202.81;;;11.18;77.08
56074;BME280;41950;55.840;37.442;2022-09-28T10:52:30;98200.91;;;11.22;76.57
56074;BME280;41950;55.840;37.442;2022-09-28T10:54:56;98184.19;;;11.08;76.36
56074;BME280;41950;55.840;37.442;2022-09-28T10:57:48;98187.22;;;11.18;76.77
56074;BME280;41950;55.840;37.442;2022-09-28T11:00:31;98188.06;;;11.19;76.77
56074;BME280;41950;55.840;37.442;2022-09-28T11:02:58;98191.78;;;11.13;76.34
56074;BME280;41950;55.840;37.442;2022-09-28T11:05:24;98189.78;;;10.99;76.12
56074;BME280;41950;55.840;37.442;2022-09-28T11:07:55;98195.97;;;10.97;76.56
56074;BME280;41950;55.840;37.442;2022-09-28T11:10:26;98191.63;;;10.97;76.07
56074;BME280;41950;55.840;37.442;2022-09-28T11:12:54;98196.91;;;10.94;76.10
56074;BME280;41950;55.840;37.442;2022-09-28T11:15:28;98193.38;;;10.97;76.14
56074;BME280;41950;55.840;37.442;2022-09-28T11:17:55;98191.00;;;11.11;75.63
56074;BME280;41950;55.840;37.442;2022-09-28T11:23:12;98196.41;;;11.27;75.66
56074;BME280;41950;55.840;37.442;2022-09-28T11:25:41;98199.56;;;11.33;75.06
56074;BME280;41950;55.840;37.442;2022-09-28T11:28:22;98195.56;;;11.26;75.12
56074;BME280;41950;55.840;37.442;2022-09-28T11:30:49;98197.75;;;11.15;75.37
56074;BME280;41950;55.840;37.442;2022-09-28T11:33:36;98201.31;;;11.12;75.40
56074;BME280;41950;55.840;37.442;2022-09-28T11:49:35;98198.38;;;11.40;75.21
56074;BME280;41950;55.840;37.442;2022-09-28T11:52:38;98205.09;;;11.44;74.26
56074;BME280;41950;55.840;37.442;2022-09-28T11:55:21;98181.91;;;11.21;74.39
56074;BME280;41950;55.840;37.442;2022-09-28T11:58:13;98198.16;;;11.26;74.94
56074;BME280;41950;55.840;37.442;2022-09-28T12:00:45;98191.34;;;11.24;75.00
56074;BME280;41950;55.840;37.442;2022-09-28T12:03:18;98192.81;;;11.29;74.98
56074;BME280;41950;55.840;37.442;2022-09-28T12:05:59;98192.34;;;11.40;74.60
56074;BME280;41950;55.840;37.442;2022-09-28T12:08:32;98195.94;;;11.56;74.24
56074;BME280;41950;55.840;37.442;2022-09-28T12:11:21;98207.97;;;11.59;74.56
56074;BME280;41950;55.840;37.442;2022-09-28T12:13:51;98201.28;;;11.53;73.79
56074;BME280;41950;55.840;37.442;2022-09-28T12:16:28;98202.66;;;11.41;73.80
56074;BME280;41950;55.840;37.442;2022-09-28T12:19:07;98204.41;;;11.41;73.94
56074;BME280;41950;55.840;37.442;2022-09-28T12:21:46;98211.09;;;11.46;74.07
56074;BME280;41950;55.840;37.442;2022-09-28T12:24:29;98207.78;;;11.43;73.56
56074;BME280;41950;55.840;37.442;2022-09-28T12:29:56;98216.25;;;11.28;74.71
56074;BME280;41950;55.840;37.442;2022-09-28T12:32:47;98194.88;;;11.21;74.67
56074;BME280;41950;55.840;37.442;2022-09-28T12:40:51;98210.34;;;11.24;74.70
56074;BME280;41950;55.840;37.442;2022-09-28T12:46:52;98211.19;;;11.25;74.81
56074;BME280;41950;55.840;37.442;2022-09-28T12:49:31;98217.34;;;11.22;75.03
56074;BME280;41950;55.840;37.442;2022-09-28T12:52:11;98211.72;;;11.12;75.40
56074;BME280;41950;55.840;37.442;2022-09-28T12:55:14;98213.41;;;11.13;75.43
56074;BME280;41950;55.840;37.442;2022-09-28T13:09:18;98206.84;;;11.05;76.10
56074;BME280;41950;55.840;37.442;2022-09-28T13:14:55;98201.00;;;11.20;75.78
56074;BME280;41950;55.840;37.442;2022-09-28T13:17:43;98207.75;;;11.24;75.31
56074;BME280;41950;55.840;37.442;2022-09-28T13:20:26;98219.16;;;11.20;75.74
56074;BME280;41950;55.840;37.442;2022-09-28T13:25:29;98212.56;;;11.13;75.34
56074;BME280;41950;55.840;37.442;2022-09-28T13:28:01;98220.47;;;11.10;76.02
56074;BME280;41950;55.840;37.442;2022-09-28T13:30:27;98214.31;;;11.12;75.85
56074;BME280;41950;55.840;37.442;2022-09-28T13:32:58;98223.66;;;11.17;75.78
56074;BME280;41950;55.840;37.442;2022-09-28T13:35:25;98211.44;;;11.19;75.35
56074;BME280;41950;55.840;37.442;2022-09-28T13:44:03;98208.13;;;11.15;75.00
56074;BME280;41950;55.840;37.442;2022-09-28T13:52:03;98207.34;;;11.13;75.09
56074;BME280;41950;55.840;37.442;2022-09-28T14:08:26;98220.22;;;10.96;75.65
56074;BME280;41950;55.840;37.442;2022-09-28T14:10:57;98212.63;;;10.91;75.69
56074;BME280;41950;55.840;37.442;2022-09-28T14:18:44;98225.53;;;11.13;75.66
56074;BME280;41950;55.840;37.442;2022-09-28T14:29:30;98231.84;;;11.07;75.62
56074;BME280;41950;55.840;37.442;2022-09-28T14:32:02;98227.63;;;11.05;75.54
56074;BME280;41950;55.840;37.442;2022-09-28T14:34:41;98237.88;;;11.08;75.47
56074;BME280;41950;55.840;37.442;2022-09-28T14:40:08;98237.09;;;11.06;75.43
56074;BME280;41950;55.840;37.442;2022-09-28T14:45:50;98250.84;;;11.08;75.29
56074;BME280;41950;55.840;37.442;2022-09-28T14:48:21;98252.81;;;11.03;75.49
56074;BME280;41950;55.840;37.442;2022-09-28T14:53:52;98250.41;;;10.98;75.67
56074;BME280;41950;55.840;37.442;2022-09-28T14:56:19;98261.88;;;10.93;75.88
56074;BME280;41950;55.840;37.442;2022-09-28T14:58:48;98249.34;;;10.82;76.28
56074;BME280;41950;55.840;37.442;2022-09-28T15:01:19;98272.16;;;10.96;76.37
56074;BME280;41950;55.840;37.442;2022-09-28T15:03:51;98277.88;;;11.04;76.64
56074;BME280;41950;55.840;37.442;2022-09-28T15:06:21;98282.06;;;11.06;76.15
56074;BME280;41950;55.840;37.442;2022-09-28T15:08:47;98282.28;;;11.02;75.74
56074;BME280;41950;55.840;37.442;2022-09-28T15:11:19;98286.81;;;10.97;76.03
56074;BME280;41950;55.840;37.442;2022-09-28T15:13:48;98283.25;;;10.99;75.68
56074;BME280;41950;55.840;37.442;2022-09-28T15:16:21;98288.38;;;11.01;75.57
56074;BME280;41950;55.840;37.442;2022-09-28T15:21:36;98299.28;;;11.09;75.16
56074;BME280;41950;55.840;37.442;2022-09-28T15:24:21;98300.25;;;11.06;75.38
56074;BME280;41950;55.840;37.442;2022-09-28T15:26:47;98298.09;;;10.96;74.63
56074;BME280;41950;55.840;37.442;2022-09-28T15:29:17;98312.88;;;10.94;74.46
56074;BME280;41950;55.840;37.442;2022-09-28T15:31:43;98315.47;;;10.94;74.73
56074;BME280;41950;55.840;37.442;2022-09-28T15:34:31;98320.13;;;10.86;74.77
56074;BME280;41950;55.840;37.442;2022-09-28T15:37:45;98317.47;;;10.87;74.59
56074;BME280;41950;55.840;37.442;2022-09-28T15:40:26;98317.66;;;10.82;74.09
56074;BME280;41950;55.840;37.442;2022-09-28T15:42:54;98319.09;;;10.90;74.54
56074;BME280;41950;55.840;37.442;2022-09-28T15:47:53;98312.34;;;10.86;74.73
56074;BME280;41950;55.840;37.442;2022-09-28T15:55:25;98334.31;;;10.99;74.45
56074;BME280;41950;55.840;37.442;2022-09-28T16:00:36;98317.06;;;10.98;74.30
56074;BME280;41950;55.840;37.442;2022-09-28T16:05:43;98322.13;;;11.01;73.69
56074;BME280;41950;55.840;37.442;2022-09-28T16:08:22;98327.44;;;10.98;74.04
56074;BME280;41950;55.840;37.442;2022-09-28T16:10:58;98326.41;;;11.02;73.97
56074;BME280;41950;55.840;37.442;2022-09-28T16:13:29;98315.41;;;10.95;73.68
56074;BME280;41950;55.840;37.442;2022-09-28T16:15:59;98321.16;;;11.03;73.80
56074;BME280;41950;55.840;37.442;2022-09-28T16:18:26;98327.97;;;11.06;73.86
56074;BME280;41950;55.840;37.442;2022-09-28T16:20:57;98317.72;;;11.03;74.02